Time;durP1;ratioP1;P1;durP2;ratioP2;P2;SDS_P1;SDS_P2;PMS_P1;PMS_P2;Temp;Humidity;BMP_temperature;BMP_pressure;BME280_temperature;BME280_humidity;BME280_pressure;Samples;Min_cycle;Max_cycle;Signal;HPM_P1;HPM_P2
2021/03/07 00:02:13;;;;;;;13.33;3.93;;;0.70;92.60;;;;;;4858244;29;20036;-83
2021/03/07 00:04:39;;;;;;;9.67;3.50;;;0.70;92.60;;;;;;4894941;29;20040;-83
2021/03/07 00:07:06;;;;;;;10.23;3.43;;;0.70;92.70;;;;;;4869506;29;20425;-83
2021/03/07 00:09:32;;;;;;;9.57;3.13;;;0.70;92.70;;;;;;4881645;29;20090;-83
2021/03/07 00:11:59;;;;;;;6.90;4.13;;;0.80;92.80;;;;;;4879848;29;20064;-83
2021/03/07 00:14:25;;;;;;;6.40;2.37;;;0.80;92.90;;;;;;4864513;29;20048;-83
2021/03/07 00:16:52;;;;;;;6.80;2.67;;;0.90;92.90;;;;;;4868694;29;20517;-83
2021/03/07 00:19:18;;;;;;;19.00;5.10;;;0.90;92.80;;;;;;4864403;29;20395;-83
2021/03/07 00:21:45;;;;;;;15.70;3.77;;;0.90;93.10;;;;;;4864193;29;20049;-83
2021/03/07 00:24:11;;;;;;;9.80;3.30;;;1.00;93.60;;;;;;4881202;29;20063;-83
2021/03/07 00:26:38;;;;;;;8.60;3.63;;;1.10;93.40;;;;;;4883740;29;20512;-83
2021/03/07 00:29:05;;;;;;;9.30;2.50;;;1.20;93.40;;;;;;4868752;29;20059;-82
2021/03/07 00:31:31;;;;;;;10.10;2.70;;;1.20;93.30;;;;;;4862026;29;20040;-83
2021/03/07 00:33:58;;;;;;;7.40;2.47;;;1.20;93.40;;;;;;4863379;29;20048;-83
2021/03/07 00:36:24;;;;;;;11.20;2.83;;;1.30;93.30;;;;;;4864977;29;20481;-83
2021/03/07 00:38:50;;;;;;;9.50;2.83;;;1.30;93.20;;;;;;4883161;29;20040;-83
2021/03/07 00:41:17;;;;;;;6.87;1.80;;;1.30;93.20;;;;;;4866015;29;20040;-83
2021/03/07 00:43:44;;;;;;;6.47;2.73;;;1.30;93.20;;;;;;4879387;29;20098;-83
2021/03/07 00:46:10;;;;;;;10.20;3.37;;;1.40;93.50;;;;;;4878751;29;20044;-83
2021/03/07 00:48:37;;;;;;;8.77;2.87;;;1.40;93.60;;;;;;4881645;29;20052;-80
2021/03/07 00:51:04;;;;;;;8.53;2.60;;;1.40;93.40;;;;;;4901421;29;20048;-83
2021/03/07 00:53:30;;;;;;;9.27;4.70;;;1.40;93.50;;;;;;4864881;29;20491;-83
2021/03/07 00:55:57;;;;;;;7.77;3.00;;;1.50;94.10;;;;;;4879217;29;20056;-83
2021/03/07 00:58:23;;;;;;;9.73;3.20;;;1.50;93.90;;;;;;4884529;29;20043;-83
2021/03/07 01:00:51;;;;;;;11.27;5.53;;;1.50;93.70;;;;;;4899128;29;20047;-83
2021/03/07 01:03:17;;;;;;;14.87;4.20;;;1.50;93.70;;;;;;4867922;29;20487;-83
2021/03/07 01:05:44;;;;;;;12.00;3.80;;;1.50;93.90;;;;;;4881866;29;20053;-83
2021/03/07 01:08:11;;;;;;;6.73;2.23;;;1.50;93.90;;;;;;4868660;29;20509;-83
2021/03/07 01:10:40;;;;;;;6.53;3.07;;;1.50;93.80;;;;;;4892532;29;20460;-82
2021/03/07 01:13:10;;;;;;;6.47;2.80;;;1.40;93.70;;;;;;4879941;29;20037;-83
2021/03/07 01:15:37;;;;;;;7.53;2.40;;;1.40;93.80;;;;;;4897163;29;20052;-81
2021/03/07 01:18:05;;;;;;;7.87;2.90;;;1.40;93.80;;;;;;4883444;29;20048;-81
2021/03/07 01:20:33;;;;;;;7.87;2.53;;;1.30;93.70;;;;;;4899296;29;20056;-81
2021/03/07 01:23:00;;;;;;;7.07;2.27;;;1.30;93.60;;;;;;4879085;29;20440;-81
2021/03/07 01:25:31;;;;;;;6.13;2.30;;;1.20;93.80;;;;;;4871913;29;20044;-82
2021/03/07 01:28:03;;;;;;;5.00;2.03;;;1.10;93.50;;;;;;4896799;29;20045;-82
2021/03/07 01:30:31;;;;;;;5.85;2.67;;;1.00;93.50;;;;;;4896708;29;20048;-82
2021/03/07 01:32:58;;;;;;;7.37;2.47;;;1.00;93.50;;;;;;4896252;29;20059;-82
2021/03/07 01:35:24;;;;;;;5.03;2.13;;;0.90;93.50;;;;;;4876698;29;20036;-82
2021/03/07 01:37:51;;;;;;;5.07;1.77;;;0.80;93.40;;;;;;4881823;29;20051;-81
2021/03/07 01:40:22;;;;;;;7.83;2.53;;;0.80;93.40;;;;;;4884505;29;20063;-81
2021/03/07 01:42:51;;;;;;;5.47;2.00;;;0.80;93.40;;;;;;4866300;29;20051;-82
2021/03/07 01:45:22;;;;;;;5.43;2.10;;;0.70;93.30;;;;;;4862048;29;20476;-82
2021/03/07 01:47:51;;;;;;;5.57;1.77;;;0.60;93.30;;;;;;4858909;29;20056;-81
2021/03/07 01:50:21;;;;;;;6.40;2.03;;;0.60;93.30;;;;;;4881893;29;20033;-81
2021/03/07 01:52:48;;;;;;;3.70;1.20;;;0.60;93.30;;;;;;4897781;29;20063;-81
2021/03/07 01:55:16;;;;;;;3.23;1.27;;;0.50;93.20;;;;;;4874532;29;20036;-81
2021/03/07 01:57:45;;;;;;;5.10;1.60;;;0.50;93.20;;;;;;4867846;29;20052;-81
2021/03/07 02:00:15;;;;;;;5.20;1.60;;;0.50;93.20;;;;;;4881924;29;20048;-81
2021/03/07 02:02:42;;;;;;;3.50;1.37;;;0.40;93.10;;;;;;4885524;29;20059;-81
2021/03/07 02:05:15;;;;;;;4.87;1.60;;;0.40;93.10;;;;;;4863996;29;20047;-82
2021/03/07 02:07:42;;;;;;;4.87;1.30;;;0.40;93.10;;;;;;4867205;29;20480;-82
2021/03/07 02:10:12;;;;;;;2.77;1.50;;;0.40;93.10;;;;;;4882825;29;20056;-81
2021/03/07 02:12:40;;;;;;;4.50;1.67;;;0.40;93.10;;;;;;4897276;29;20814;-81
2021/03/07 02:15:10;;;;;;;4.80;2.00;;;0.40;93.10;;;;;;4895178;29;20059;-81
2021/03/07 02:17:38;;;;;;;4.17;1.47;;;0.40;93.10;;;;;;4867149;29;20075;-81
2021/03/07 02:20:07;;;;;;;3.90;1.30;;;0.40;93.00;;;;;;4899743;29;20072;-81
2021/03/07 02:23:01;;;;;;;4.80;1.47;;;0.40;93.00;;;;;;4906954;29;20048;-81
2021/03/07 02:25:29;;;;;;;6.73;2.60;;;0.40;93.00;;;;;;4867741;29;20046;-81
2021/03/07 02:27:58;;;;;;;3.93;2.70;;;0.30;93.10;;;;;;4865665;29;20041;-82
2021/03/07 02:30:26;;;;;;;4.77;2.30;;;0.30;93.30;;;;;;4896414;29;20055;-81
2021/03/07 02:33:02;;;;;;;4.83;1.80;;;0.30;93.10;;;;;;4897333;29;20040;-81
2021/03/07 02:35:31;;;;;;;5.90;2.03;;;0.30;93.10;;;;;;4869690;29;20055;-81
2021/03/07 02:38:01;;;;;;;4.93;1.83;;;0.30;93.00;;;;;;4880615;29;20048;-81
2021/03/07 02:40:29;;;;;;;7.00;1.40;;;0.30;93.10;;;;;;4888097;29;20416;-81
2021/03/07 02:42:58;;;;;;;5.80;1.60;;;0.20;93.00;;;;;;4901141;29;20404;-81
2021/03/07 02:45:25;;;;;;;3.53;1.87;;;0.20;93.00;;;;;;4884592;29;20039;-81
2021/03/07 02:47:53;;;;;;;3.47;1.40;;;0.20;93.00;;;;;;4897938;29;20045;-81
2021/03/07 02:50:31;;;;;;;8.60;2.60;;;0.20;93.00;;;;;;4887175;29;20040;-81
2021/03/07 02:53:13;;;;;;;4.67;1.60;;;0.20;93.10;;;;;;4900949;29;20051;-81
2021/03/07 02:55:42;;;;;;;4.70;1.50;;;0.20;93.10;;;;;;4893275;29;20053;-81
2021/03/07 02:58:13;;;;;;;2.53;1.27;;;0.20;93.00;;;;;;4897270;29;20475;-81
2021/03/07 03:00:50;;;;;;;4.03;1.27;;;0.20;92.90;;;;;;4895766;29;20044;-81
2021/03/07 03:03:21;;;;;;;6.83;1.87;;;0.20;92.90;;;;;;4878283;29;20605;-81
2021/03/07 03:05:52;;;;;;;2.50;1.23;;;0.10;92.90;;;;;;4876946;29;20039;-81
2021/03/07 03:08:19;;;;;;;3.33;1.40;;;0.10;92.90;;;;;;4895505;29;20051;-81
2021/03/07 03:10:49;;;;;;;4.83;1.60;;;0.10;92.90;;;;;;4871834;29;20053;-81
2021/03/07 03:13:22;;;;;;;6.17;1.53;;;0.10;92.90;;;;;;4883160;29;20056;-86
2021/03/07 03:15:51;;;;;;;4.97;1.20;;;0.00;92.90;;;;;;4900501;29;20057;-83
2021/03/07 03:18:19;;;;;;;5.63;1.43;;;0.00;92.90;;;;;;4897825;29;20059;-82
2021/03/07 03:20:51;;;;;;;2.13;0.70;;;0.00;92.80;;;;;;4865484;29;20044;-83
2021/03/07 03:23:19;;;;;;;4.10;1.10;;;0.00;92.90;;;;;;4878022;29;20067;-83
2021/03/07 03:25:50;;;;;;;5.97;1.70;;;0.00;92.80;;;;;;4878544;29;20484;-83
2021/03/07 03:28:19;;;;;;;4.37;1.23;;;0.00;92.80;;;;;;4884124;29;20429;-82
2021/03/07 03:30:46;;;;;;;3.67;1.20;;;-0.10;92.70;;;;;;4894495;29;20051;-83
2021/03/07 03:33:13;;;;;;;6.00;1.70;;;-0.10;92.70;;;;;;4864585;29;20044;-83
2021/03/07 03:35:39;;;;;;;2.90;1.00;;;-0.10;92.70;;;;;;4883962;29;20052;-83
2021/03/07 03:38:06;;;;;;;3.03;1.07;;;-0.10;92.70;;;;;;4882060;29;20044;-83
2021/03/07 03:40:33;;;;;;;4.90;1.10;;;-0.10;92.70;;;;;;4882773;29;20640;-83
2021/03/07 03:43:06;;;;;;;4.17;1.10;;;-0.10;92.70;;;;;;4891175;29;20048;-83
2021/03/07 03:45:35;;;;;;;5.03;1.10;;;-0.10;92.70;;;;;;4898259;29;20055;-83
2021/03/07 03:48:06;;;;;;;4.00;1.23;;;-0.10;92.70;;;;;;4893325;29;20051;-83
2021/03/07 03:50:37;;;;;;;5.50;1.30;;;-0.10;92.70;;;;;;4882511;29;20077;-83
2021/03/07 03:53:06;;;;;;;3.30;1.13;;;-0.10;92.70;;;;;;4880516;29;20044;-83
2021/03/07 03:55:34;;;;;;;3.80;1.00;;;-0.10;92.60;;;;;;4879509;29;20075;-83
2021/03/07 03:58:07;;;;;;;4.33;1.13;;;-0.10;92.60;;;;;;4884626;29;20508;-83
2021/03/07 04:00:37;;;;;;;3.77;1.30;;;-0.10;92.90;;;;;;4896991;29;20052;-83
2021/03/07 04:03:04;;;;;;;5.83;1.37;;;-0.20;92.60;;;;;;4882124;29;20486;-83
2021/03/07 04:05:31;;;;;;;5.43;1.23;;;-0.20;92.60;;;;;;4876226;29;20052;-83
2021/03/07 04:08:01;;;;;;;2.93;1.00;;;-0.10;92.70;;;;;;4863853;29;20043;-83
2021/03/07 04:10:29;;;;;;;3.20;1.27;;;-0.20;92.60;;;;;;4867510;29;20056;-83
2021/03/07 04:12:59;;;;;;;5.27;1.13;;;-0.10;92.60;;;;;;4871845;29;20041;-83
2021/03/07 04:15:27;;;;;;;6.40;1.27;;;-0.10;92.70;;;;;;4876685;29;20412;-83
2021/03/07 04:17:57;;;;;;;3.00;1.17;;;-0.10;92.70;;;;;;4874745;29;20052;-83
2021/03/07 04:20:26;;;;;;;6.83;1.03;;;-0.20;92.60;;;;;;4870827;29;20407;-83
2021/03/07 04:22:53;;;;;;;5.90;1.13;;;-0.20;92.60;;;;;;4880320;29;20503;-83
2021/03/07 04:25:20;;;;;;;3.27;0.80;;;-0.20;92.60;;;;;;4895326;29;20044;-83
2021/03/07 04:27:48;;;;;;;7.50;1.47;;;-0.20;92.60;;;;;;4855257;29;20036;-83
2021/03/07 04:30:15;;;;;;;2.60;1.00;;;-0.20;92.60;;;;;;4868261;29;20040;-83
2021/03/07 04:32:43;;;;;;;4.53;1.20;;;-0.30;92.60;;;;;;4866915;29;20044;-83
2021/03/07 04:35:12;;;;;;;2.50;0.60;;;-0.30;92.60;;;;;;4884394;29;20054;-83
2021/03/07 04:37:39;;;;;;;3.27;1.13;;;-0.30;92.60;;;;;;4866410;29;20055;-83
2021/03/07 04:40:06;;;;;;;5.40;1.07;;;-0.20;92.60;;;;;;4894655;29;20403;-83
2021/03/07 04:42:34;;;;;;;5.30;1.20;;;-0.30;92.60;;;;;;4858327;29;20044;-83
2021/03/07 04:45:03;;;;;;;3.97;1.40;;;-0.20;92.60;;;;;;4873669;29;20032;-83
2021/03/07 04:47:29;;;;;;;3.23;1.10;;;-0.30;92.60;;;;;;4882305;29;20036;-83
2021/03/07 04:49:56;;;;;;;2.20;0.93;;;-0.30;92.60;;;;;;4873116;29;20036;-83
2021/03/07 04:52:22;;;;;;;2.67;1.03;;;-0.30;92.60;;;;;;4862267;29;20411;-83
2021/03/07 04:54:49;;;;;;;4.93;1.20;;;-0.30;92.60;;;;;;4867993;29;20048;-84
2021/03/07 04:57:16;;;;;;;4.37;0.93;;;-0.30;92.60;;;;;;4859236;29;20048;-83
2021/03/07 04:59:43;;;;;;;4.63;1.17;;;-0.20;92.60;;;;;;4861484;29;20064;-83
2021/03/07 05:02:09;;;;;;;4.20;1.07;;;-0.30;92.60;;;;;;4863998;29;20052;-83
2021/03/07 05:04:36;;;;;;;2.00;0.97;;;-0.30;92.60;;;;;;4864993;29;20043;-83
2021/03/07 05:07:02;;;;;;;4.83;0.97;;;-0.30;92.60;;;;;;4864539;29;20829;-83
2021/03/07 05:09:29;;;;;;;3.23;0.90;;;-0.20;92.60;;;;;;4882066;29;20637;-83
2021/03/07 05:11:55;;;;;;;4.70;1.00;;;-0.30;92.60;;;;;;4874493;29;20507;-83
2021/03/07 05:14:22;;;;;;;5.17;0.80;;;-0.20;92.60;;;;;;4874692;29;20047;-83
2021/03/07 05:16:48;;;;;;;2.17;1.07;;;-0.30;92.60;;;;;;4870547;29;20048;-83
2021/03/07 05:19:15;;;;;;;3.07;1.13;;;-0.20;92.70;;;;;;4882690;29;20060;-83
2021/03/07 05:21:41;;;;;;;7.10;1.10;;;-0.20;92.60;;;;;;4886574;29;20444;-83
2021/03/07 05:24:08;;;;;;;2.77;1.17;;;-0.20;92.60;;;;;;4888070;29;20032;-83
2021/03/07 05:26:35;;;;;;;3.60;0.80;;;-0.10;92.60;;;;;;4864720;29;20066;-83
2021/03/07 05:29:01;;;;;;;6.23;1.03;;;0.00;92.60;;;;;;4868774;29;20048;-83
2021/03/07 05:31:28;;;;;;;4.87;1.20;;;0.10;92.60;;;;;;4869049;29;20063;-83
2021/03/07 05:33:54;;;;;;;2.77;1.07;;;0.10;92.50;;;;;;4881281;29;20415;-83
2021/03/07 05:36:21;;;;;;;3.40;0.83;;;0.20;92.40;;;;;;4889698;29;20075;-83
2021/03/07 05:38:47;;;;;;;3.77;1.47;;;0.30;92.40;;;;;;4873219;29;20400;-83
2021/03/07 05:41:14;;;;;;;2.37;1.10;;;0.50;92.30;;;;;;4889170;29;20054;-83
2021/03/07 05:43:42;;;;;;;2.30;0.80;;;0.50;92.20;;;;;;4884164;29;20047;-83
2021/03/07 05:46:09;;;;;;;3.20;1.00;;;0.60;92.20;;;;;;4891554;29;20521;-83
2021/03/07 05:48:36;;;;;;;5.63;1.23;;;0.60;92.40;;;;;;4897580;29;20527;-83
2021/03/07 05:51:02;;;;;;;4.13;1.13;;;0.70;92.10;;;;;;4887966;29;20052;-83
2021/03/07 05:53:31;;;;;;;4.70;1.17;;;0.80;92.10;;;;;;4868334;29;20125;-83
2021/03/07 05:55:58;;;;;;;4.47;1.20;;;0.80;92.10;;;;;;4884888;29;20054;-83
2021/03/07 05:58:28;;;;;;;3.87;0.73;;;0.90;92.10;;;;;;4878076;29;20055;-83
2021/03/07 06:00:55;;;;;;;5.27;0.97;;;0.90;92.10;;;;;;4869571;29;20411;-83
2021/03/07 06:03:22;;;;;;;7.87;1.63;;;1.00;92.10;;;;;;4918357;29;20040;-83
2021/03/07 06:05:52;;;;;;;9.07;1.40;;;1.00;92.10;;;;;;4882994;29;20052;-83
2021/03/07 06:08:20;;;;;;;8.53;1.47;;;1.10;92.10;;;;;;4870380;29;20039;-83
2021/03/07 06:10:47;;;;;;;4.73;1.37;;;1.10;92.10;;;;;;4887120;29;20060;-83
2021/03/07 06:13:13;;;;;;;4.37;1.33;;;1.20;92.10;;;;;;4886209;29;20048;-83
2021/03/07 06:15:42;;;;;;;4.37;0.80;;;1.20;92.10;;;;;;4857709;29;20048;-83
2021/03/07 06:18:18;;;;;;;10.00;3.73;;;1.20;92.00;;;;;;4900921;29;20055;-83
2021/03/07 06:20:48;;;;;;;6.90;2.30;;;1.20;92.20;;;;;;4868557;29;20400;-83
2021/03/07 06:23:15;;;;;;;6.20;1.50;;;1.30;92.40;;;;;;4903561;29;20250;-83
2021/03/07 06:25:50;;;;;;;3.43;1.13;;;1.30;92.40;;;;;;4900408;29;21141;-83
2021/03/07 06:28:25;;;;;;;3.87;0.90;;;1.30;92.30;;;;;;4859347;29;20040;-83
2021/03/07 06:30:53;;;;;;;3.30;1.20;;;1.40;92.30;;;;;;4910831;29;20048;-83
2021/03/07 06:33:34;;;;;;;5.03;1.03;;;1.40;92.50;;;;;;4893058;29;20044;-83
2021/03/07 06:36:22;;;;;;;6.63;1.40;;;1.50;92.20;;;;;;4905350;29;20052;-83
2021/03/07 06:38:54;;;;;;;3.93;1.60;;;1.50;92.20;;;;;;4894006;29;20080;-83
2021/03/07 06:41:24;;;;;;;5.00;2.30;;;1.50;92.10;;;;;;4887895;29;20047;-82
2021/03/07 06:43:52;;;;;;;4.37;1.47;;;1.60;92.20;;;;;;4879195;29;20047;-82
2021/03/07 06:46:32;;;;;;;7.10;2.43;;;1.60;92.20;;;;;;4897514;29;20488;-82
2021/03/07 06:48:59;;;;;;;11.50;2.77;;;1.60;92.20;;;;;;4883829;29;20029;-83
2021/03/07 06:51:32;;;;;;;7.73;1.90;;;1.60;92.10;;;;;;4884489;29;20123;-83
2021/03/07 06:54:20;;;;;;;4.10;2.20;;;1.50;92.00;;;;;;4881008;29;20496;-82
2021/03/07 06:56:51;;;;;;;4.33;2.07;;;1.30;92.10;;;;;;4864506;29;20041;-82
2021/03/07 06:59:20;;;;;;;3.53;1.70;;;1.20;92.10;;;;;;4894995;29;20040;-83
2021/03/07 07:01:53;;;;;;;3.90;2.27;;;1.00;92.20;;;;;;4879873;29;20051;-82
2021/03/07 07:04:21;;;;;;;3.77;1.77;;;1.00;92.40;;;;;;4876533;29;20041;-82
2021/03/07 07:07:16;;;;;;;3.13;1.63;;;0.90;92.50;;;;;;4882115;29;20051;-82
2021/03/07 07:09:47;;;;;;;5.70;2.97;;;0.90;92.50;;;;;;4852531;29;20412;-83
2021/03/07 07:12:21;;;;;;;4.03;1.90;;;0.90;92.50;;;;;;4872791;29;20534;-82
2021/03/07 07:14:48;;;;;;;5.30;3.53;;;1.00;92.60;;;;;;4880841;29;20412;-83
2021/03/07 07:17:20;;;;;;;6.33;3.20;;;1.00;92.60;;;;;;4886355;29;20051;-83
2021/03/07 07:19:48;;;;;;;4.60;2.90;;;1.10;92.70;;;;;;4870297;29;20048;-82
2021/03/07 07:22:16;;;;;;;4.77;2.63;;;1.20;92.60;;;;;;4900602;29;20039;-81
2021/03/07 07:24:44;;;;;;;12.63;3.80;;;1.30;92.60;;;;;;4891839;29;20495;-81
2021/03/07 07:27:11;;;;;;;6.67;2.93;;;1.30;92.60;;;;;;4868642;29;20036;-81
2021/03/07 07:29:38;;;;;;;6.70;2.87;;;1.40;92.70;;;;;;4899975;29;20031;-81
2021/03/07 07:32:24;;;;;;;5.67;3.60;;;1.50;92.70;;;;;;4902365;29;20553;-81
2021/03/07 07:34:52;;;;;;;9.60;2.60;;;1.60;92.60;;;;;;4884063;29;20412;-81
2021/03/07 07:37:25;;;;;;;8.33;3.53;;;1.70;92.60;;;;;;4899439;29;20499;-81
2021/03/07 07:39:52;;;;;;;;;;;1.80;92.60;;;;;;4900564;29;20420;-80
2021/03/07 07:42:26;;;;;;;10.73;4.37;;;1.90;92.60;;;;;;4866259;29;19934;-81
2021/03/07 07:44:59;;;;;;;10.80;3.90;;;2.00;92.50;;;;;;4881207;29;20035;-80
2021/03/07 07:47:51;;;;;;;12.37;4.80;;;2.00;92.50;;;;;;4882114;29;20028;-81
2021/03/07 07:50:34;;;;;;;10.20;5.27;;;2.10;92.50;;;;;;4895609;29;20463;-80
2021/03/07 07:53:26;;;;;;;10.53;4.80;;;2.20;92.50;;;;;;4867782;29;20422;-81
2021/03/07 07:55:57;;;;;;;11.32;3.80;;;2.30;92.50;;;;;;4901755;29;20074;-81
2021/03/07 07:58:40;;;;;;;11.33;4.93;;;2.30;92.50;;;;;;4872753;29;20051;-80
2021/03/07 08:01:12;;;;;;;;;;;2.50;92.60;;;;;;4887142;29;20047;-81
2021/03/07 08:03:39;;;;;;;9.33;3.70;;;2.60;92.50;;;;;;4863290;29;19994;-81
2021/03/07 08:06:08;;;;;;;7.10;2.93;;;2.70;92.50;;;;;;4872483;29;20044;-81
2021/03/07 08:08:37;;;;;;;7.53;3.10;;;2.80;92.40;;;;;;4885364;29;20039;-81
2021/03/07 08:11:08;;;;;;;7.03;3.70;;;2.90;92.30;;;;;;4875414;29;20399;-80
2021/03/07 08:13:34;;;;;;;6.63;2.30;;;3.10;92.10;;;;;;4885397;29;20166;-80
2021/03/07 08:16:03;;;;;;;6.67;2.23;;;3.10;92.00;;;;;;4888948;29;20048;-81
2021/03/07 08:18:50;;;;;;;8.30;2.70;;;3.20;91.90;;;;;;4890144;29;20080;-81
2021/03/07 08:21:18;;;;;;;9.57;2.73;;;3.30;91.80;;;;;;4899341;29;20039;-81
2021/03/07 08:24:08;;;;;;;5.47;3.60;;;3.30;91.70;;;;;;4870655;29;20040;-81
2021/03/07 08:26:44;;;;;;;6.90;3.47;;;3.40;91.70;;;;;;4900603;29;20051;-81
2021/03/07 08:29:48;;;;;;;6.33;3.47;;;3.50;91.60;;;;;;4886238;29;20055;-81
2021/03/07 08:32:28;;;;;;;11.77;3.90;;;3.60;91.60;;;;;;4898434;29;20418;-81
2021/03/07 08:35:00;;;;;;;8.63;3.27;;;3.60;91.50;;;;;;4868203;29;20048;-82
2021/03/07 08:37:28;;;;;;;7.07;3.20;;;3.70;91.50;;;;;;4858050;29;20040;-81
2021/03/07 08:40:30;;;;;;;6.20;2.70;;;3.80;91.50;;;;;;4897911;29;20060;-81
2021/03/07 08:43:20;;;;;;;7.53;2.83;;;3.80;91.50;;;;;;4866835;29;20052;-82
2021/03/07 08:46:08;;;;;;;6.97;3.13;;;4.00;91.40;;;;;;4884042;29;20032;-82
2021/03/07 08:48:36;;;;;;;7.37;2.43;;;4.10;91.60;;;;;;4880586;29;20052;-81
2021/03/07 08:51:05;;;;;;;3.87;2.23;;;4.20;91.10;;;;;;4867067;29;20048;-81
2021/03/07 08:53:36;;;;;;;4.43;2.07;;;4.30;91.10;;;;;;4861229;29;20447;-81
2021/03/07 08:56:03;;;;;;;3.27;2.00;;;4.50;91.00;;;;;;4883781;29;20051;-81
2021/03/07 08:58:30;;;;;;;3.53;1.77;;;4.70;90.80;;;;;;4882891;29;20053;-82
2021/03/07 09:00:58;;;;;;;3.20;1.53;;;4.90;90.50;;;;;;4873234;29;20472;-81
2021/03/07 09:03:27;;;;;;;4.43;1.70;;;5.10;90.20;;;;;;4878955;29;20043;-79
2021/03/07 09:05:55;;;;;;;4.33;1.90;;;5.30;89.10;;;;;;4882181;29;20028;-82
2021/03/07 09:08:24;;;;;;;3.23;1.67;;;5.40;88.00;;;;;;4898924;29;20052;-81
2021/03/07 09:10:59;;;;;;;5.03;1.87;;;5.50;87.40;;;;;;4882977;29;20431;-81
2021/03/07 09:13:28;;;;;;;3.67;1.50;;;5.50;86.00;;;;;;4880059;29;20036;-81
2021/03/07 09:16:03;;;;;;;3.50;1.70;;;5.50;85.70;;;;;;4897354;29;20047;-82
2021/03/07 09:18:35;;;;;;;2.70;1.50;;;5.50;85.20;;;;;;4921948;29;20084;-81
2021/03/07 09:21:05;;;;;;;3.07;1.80;;;5.60;84.80;;;;;;4874406;29;20036;-82
2021/03/07 09:23:44;;;;;;;3.17;1.20;;;5.70;84.50;;;;;;4889342;29;20504;-82
2021/03/07 09:26:14;;;;;;;3.50;1.00;;;5.80;83.60;;;;;;4875926;29;20043;-82
2021/03/07 09:28:52;;;;;;;3.27;1.07;;;5.90;82.30;;;;;;4896624;29;20051;-82
2021/03/07 09:31:20;;;;;;;3.60;0.90;;;6.10;81.10;;;;;;4860232;29;20043;-80
2021/03/07 09:33:51;;;;;;;4.60;1.00;;;6.30;79.40;;;;;;4881901;29;20513;-81
2021/03/07 09:36:20;;;;;;;6.33;1.00;;;6.30;78.10;;;;;;4870180;29;20487;-81
2021/03/07 09:38:58;;;;;;;1.50;0.90;;;6.50;76.20;;;;;;4892627;29;20055;-81
2021/03/07 09:41:46;;;;;;;2.07;0.67;;;6.60;74.80;;;;;;4900620;29;20032;-81
2021/03/07 09:44:22;;;;;;;2.83;1.23;;;6.70;74.40;;;;;;4872569;29;20047;-81
2021/03/07 09:46:51;;;;;;;1.20;0.60;;;6.80;71.00;;;;;;4884128;29;20517;-81
2021/03/07 09:49:25;;;;;;;2.50;0.50;;;6.80;70.40;;;;;;4860216;29;20472;-81
2021/03/07 09:51:53;;;;;;;1.48;0.50;;;6.90;69.90;;;;;;4870408;29;20403;-81
2021/03/07 09:54:20;;;;;;;3.13;0.33;;;7.00;69.80;;;;;;4875833;29;20082;-81
2021/03/07 09:56:52;;;;;;;2.00;0.40;;;7.00;68.50;;;;;;4850737;29;20491;-82
2021/03/07 09:59:24;;;;;;;2.03;0.40;;;7.10;68.20;;;;;;4867636;29;20071;-82
2021/03/07 10:02:06;;;;;;;0.93;0.40;;;7.20;67.60;;;;;;4898428;29;20042;-82
2021/03/07 10:04:42;;;;;;;3.22;0.55;;;7.20;66.80;;;;;;4881640;29;20047;-82
2021/03/07 10:07:21;;;;;;;1.73;0.70;;;7.30;66.20;;;;;;4898037;29;20348;-82
2021/03/07 10:10:08;;;;;;;2.83;0.50;;;7.40;65.20;;;;;;4897700;29;20044;-82
2021/03/07 10:12:52;;;;;;;3.80;0.43;;;7.50;64.10;;;;;;4889000;29;20063;-82
2021/03/07 10:15:27;;;;;;;2.40;0.40;;;7.60;64.20;;;;;;4890907;29;20051;-83
2021/03/07 10:17:56;;;;;;;2.20;0.60;;;7.70;63.70;;;;;;4901777;29;20059;-83
2021/03/07 10:20:23;;;;;;;2.33;0.70;;;7.70;63.10;;;;;;4884331;29;20403;-82
2021/03/07 10:22:55;;;;;;;3.47;0.60;;;7.70;63.50;;;;;;4869359;29;20048;-82
2021/03/07 10:25:27;;;;;;;2.55;0.68;;;7.90;63.80;;;;;;4902463;29;20035;-83
2021/03/07 10:28:03;;;;;;;1.65;0.50;;;8.10;63.50;;;;;;4899173;29;20048;-83
2021/03/07 10:30:38;;;;;;;2.28;0.57;;;8.20;63.10;;;;;;4901132;29;20047;-82
2021/03/07 10:33:29;;;;;;;2.30;0.60;;;8.30;63.30;;;;;;4899383;29;20059;-82
2021/03/07 10:36:17;;;;;;;3.05;0.50;;;8.40;62.00;;;;;;4888163;29;20055;-82
2021/03/07 10:38:45;;;;;;;1.73;0.45;;;8.50;62.00;;;;;;4865691;29;20521;-81
2021/03/07 10:41:21;;;;;;;2.17;0.60;;;8.70;61.70;;;;;;4871143;29;20055;-81
2021/03/07 10:43:49;;;;;;;1.45;0.50;;;8.90;61.10;;;;;;4919234;29;20074;-82
2021/03/07 10:46:36;;;;;;;2.88;0.55;;;9.30;59.50;;;;;;4898053;29;20072;-82
2021/03/07 10:49:05;;;;;;;1.00;0.32;;;9.40;56.80;;;;;;4860857;29;20060;-82
2021/03/07 10:51:33;;;;;;;2.42;0.50;;;9.60;56.20;;;;;;4877917;29;20035;-82
2021/03/07 10:54:00;;;;;;;1.00;0.35;;;9.70;55.10;;;;;;4885754;29;20510;-82
2021/03/07 10:56:34;;;;;;;1.83;0.82;;;10.00;55.80;;;;;;4886972;29;20052;-82
2021/03/07 10:59:02;;;;;;;1.45;0.60;;;10.30;53.20;;;;;;4887066;29;20048;-82
2021/03/07 11:01:28;;;;;;;2.25;0.50;;;10.30;51.50;;;;;;4883735;29;20477;-82
2021/03/07 11:03:55;;;;;;;2.22;0.82;;;10.20;51.50;;;;;;4880877;29;20040;-82
2021/03/07 11:06:22;;;;;;;2.53;0.85;;;10.10;50.20;;;;;;4875985;29;20041;-83
2021/03/07 11:08:50;;;;;;;2.65;0.85;;;10.10;51.20;;;;;;4889622;29;20080;-82
2021/03/07 11:11:17;;;;;;;3.05;0.40;;;10.20;50.10;;;;;;4864657;29;20063;-83
2021/03/07 11:13:44;;;;;;;1.67;0.50;;;10.10;50.10;;;;;;4887954;29;20044;-87
2021/03/07 11:16:12;;;;;;;2.90;0.50;;;9.90;50.70;;;;;;4896304;29;20039;-82
2021/03/07 11:18:39;;;;;;;2.60;0.40;;;9.70;50.10;;;;;;4882038;29;20771;-86
2021/03/07 11:21:06;;;;;;;1.70;0.38;;;9.60;51.20;;;;;;4902800;29;20040;-81
2021/03/07 11:23:34;;;;;;;3.42;0.65;;;9.80;51.70;;;;;;4899872;29;20522;-80
2021/03/07 11:26:04;;;;;;;2.22;0.50;;;10.30;51.00;;;;;;4902671;29;20048;-81
2021/03/07 11:28:31;;;;;;;1.45;0.40;;;10.60;50.00;;;;;;4884171;29;20032;-80
2021/03/07 11:30:58;;;;;;;2.28;0.50;;;10.70;49.10;;;;;;4901028;29;20047;-81
2021/03/07 11:33:25;;;;;;;2.13;0.50;;;10.40;48.30;;;;;;4900124;29;20052;-83
2021/03/07 11:35:52;;;;;;;1.13;0.40;;;10.10;49.30;;;;;;4889011;29;20047;-83
2021/03/07 11:38:19;;;;;;;2.00;0.40;;;9.90;50.00;;;;;;4905847;29;20063;-80
2021/03/07 11:40:46;;;;;;;7.00;2.88;;;10.00;51.40;;;;;;4888599;29;20047;-82
2021/03/07 11:43:13;;;;;;;15.18;6.78;;;10.50;50.20;;;;;;4867253;29;20059;-83
2021/03/07 11:45:40;;;;;;;5.18;2.50;;;10.90;50.00;;;;;;4885617;29;20034;-79
2021/03/07 11:48:07;;;;;;;2.03;0.70;;;11.40;49.30;;;;;;4900754;29;20542;-81
2021/03/07 11:50:34;;;;;;;2.08;0.40;;;11.50;48.10;;;;;;4886751;29;20047;-81
2021/03/07 11:53:00;;;;;;;2.45;0.40;;;11.20;46.90;;;;;;4872949;29;20051;-81
2021/03/07 11:55:27;;;;;;;2.53;0.73;;;10.80;47.10;;;;;;4881710;29;20048;-81
2021/03/07 11:57:53;;;;;;;2.25;0.60;;;10.40;47.30;;;;;;4888331;29;20058;-81
2021/03/07 12:00:20;;;;;;;3.58;0.60;;;9.90;48.50;;;;;;4867436;29;20525;-82
2021/03/07 12:02:47;;;;;;;2.75;0.60;;;9.80;49.50;;;;;;4873108;29;20055;-81
2021/03/07 12:05:13;;;;;;;3.17;0.60;;;10.10;50.50;;;;;;4882079;29;20039;-82
2021/03/07 12:07:40;;;;;;;1.63;0.50;;;10.60;48.60;;;;;;4868903;29;20067;-82
2021/03/07 12:10:14;;;;;;;2.00;0.60;;;10.50;48.30;;;;;;4876866;29;20060;-82
2021/03/07 12:12:41;;;;;;;4.20;0.85;;;10.30;48.20;;;;;;4888724;29;20066;-82
2021/03/07 12:15:08;;;;;;;4.13;0.90;;;10.00;48.80;;;;;;4869554;29;20044;-82
2021/03/07 12:17:35;;;;;;;1.92;0.85;;;9.80;49.30;;;;;;4872266;29;20487;-82
2021/03/07 12:20:03;;;;;;;2.28;0.60;;;9.70;49.70;;;;;;4862030;29;20060;-82
2021/03/07 12:22:29;;;;;;;2.80;0.52;;;9.70;49.90;;;;;;4895649;29;20066;-82
2021/03/07 12:24:56;;;;;;;2.63;0.70;;;9.70;49.70;;;;;;4883520;29;20399;-82
2021/03/07 12:27:22;;;;;;;2.80;0.88;;;10.00;51.20;;;;;;4884167;29;20515;-81
2021/03/07 12:29:49;;;;;;;13.38;7.65;;;10.50;49.50;;;;;;4880349;29;20050;-88
2021/03/07 12:32:17;;;;;;;3.97;2.40;;;10.60;48.50;;;;;;4878716;29;20044;-83
2021/03/07 12:34:43;;;;;;;3.83;1.70;;;10.40;49.10;;;;;;4881198;29;20490;-82
2021/03/07 12:37:10;;;;;;;5.07;1.38;;;10.20;49.60;;;;;;4899173;29;20075;-83
2021/03/07 12:39:36;;;;;;;2.08;0.68;;;10.00;51.00;;;;;;4864220;29;20036;-83
2021/03/07 12:42:04;;;;;;;2.63;0.90;;;9.70;51.10;;;;;;4895752;29;20044;-84
2021/03/07 12:44:30;;;;;;;4.97;0.60;;;9.60;50.90;;;;;;4897043;29;20056;-83
2021/03/07 12:46:57;;;;;;;4.18;0.60;;;9.50;50.90;;;;;;4893453;29;20062;-83
2021/03/07 12:49:23;;;;;;;4.97;0.85;;;9.50;50.90;;;;;;4894503;29;20395;-84
2021/03/07 12:51:50;;;;;;;1.08;0.30;;;9.50;50.40;;;;;;4882036;29;20059;-83
2021/03/07 12:54:17;;;;;;;3.95;1.10;;;9.40;50.20;;;;;;4879454;29;20063;-83
2021/03/07 12:56:43;;;;;;;2.40;0.52;;;9.30;50.50;;;;;;4872228;29;20051;-82
2021/03/07 12:59:11;;;;;;;2.50;0.60;;;9.30;50.70;;;;;;4871420;29;20044;-82
2021/03/07 13:01:37;;;;;;;3.67;0.57;;;9.40;51.00;;;;;;4856514;29;20045;-81
2021/03/07 13:04:04;;;;;;;2.70;0.75;;;9.30;51.60;;;;;;4866858;29;20055;-83
2021/03/07 13:06:30;;;;;;;3.78;0.65;;;9.30;50.40;;;;;;4889728;29;20094;-83
2021/03/07 13:08:57;;;;;;;1.45;0.60;;;9.10;51.00;;;;;;4915426;29;20051;-83
2021/03/07 13:11:24;;;;;;;2.33;0.63;;;8.90;51.60;;;;;;4883714;29;20052;-82